Time;durP1;ratioP1;P1;durP2;ratioP2;P2;SDS_P1;SDS_P2;PMS_P1;PMS_P2;Temp;Humidity;BMP_temperature;BMP_pressure;BME280_temperature;BME280_humidity;BME280_pressure;Samples;Min_cycle;Max_cycle;Signal;HPM_P1;HPM_P2
2022/07/15 00:02:23;;;;;;;0.73;0.50;;;21.80;85.50;;;;;;5070618;28;20040;-67
2022/07/15 00:04:49;;;;;;;0.47;0.47;;;21.80;85.50;;;;;;5069758;28;20040;-63
2022/07/15 00:07:14;;;;;;;0.32;0.32;;;21.80;85.60;;;;;;5069838;28;20044;-67
2022/07/15 00:12:24;;;;;;;0.30;0.30;;;21.80;85.60;;;;;;5070399;28;20052;-67
2022/07/15 00:14:50;;;;;;;0.50;0.40;;;21.80;85.60;;;;;;5069523;28;20049;-67
2022/07/15 00:17:16;;;;;;;0.30;0.30;;;21.80;85.60;;;;;;5069861;28;20055;-66
2022/07/15 00:19:41;;;;;;;0.30;0.30;;;21.80;85.60;;;;;;5068221;28;20485;-68
2022/07/15 00:22:08;;;;;;;0.40;0.40;;;21.80;85.70;;;;;;5069912;28;20470;-68
2022/07/15 00:24:34;;;;;;;1.05;0.30;;;21.80;85.60;;;;;;5069416;28;20619;-67
2022/07/15 00:27:02;;;;;;;0.38;0.38;;;21.80;85.70;;;;;;5070474;28;20813;-67
2022/07/15 00:29:27;;;;;;;0.45;0.45;;;21.80;85.70;;;;;;5070972;28;20055;-67
2022/07/15 00:31:53;;;;;;;0.32;0.32;;;21.80;85.70;;;;;;5070165;28;20044;-68
2022/07/15 00:34:19;;;;;;;0.32;0.32;;;21.80;85.70;;;;;;5070254;28;20473;-66
2022/07/15 00:36:44;;;;;;;0.80;0.70;;;21.80;85.80;;;;;;5068979;28;20043;-67
2022/07/15 00:39:10;;;;;;;0.30;0.30;;;21.80;85.80;;;;;;5069471;28;20111;-67
2022/07/15 00:41:40;;;;;;;0.30;0.30;;;21.80;85.80;;;;;;5070047;28;20044;-67
2022/07/15 00:44:06;;;;;;;0.50;0.50;;;21.80;85.80;;;;;;5070883;28;20047;-68
2022/07/15 00:46:32;;;;;;;0.60;0.60;;;21.80;85.90;;;;;;5070071;28;20044;-67
2022/07/15 00:48:59;;;;;;;0.50;0.50;;;21.70;85.80;;;;;;5085337;28;20497;-65
2022/07/15 00:51:25;;;;;;;0.88;0.35;;;21.80;85.90;;;;;;5069068;28;20047;-67
2022/07/15 00:53:53;;;;;;;0.85;0.43;;;21.70;85.90;;;;;;5069281;28;20127;-67
2022/07/15 00:56:23;;;;;;;0.55;0.45;;;21.80;85.90;;;;;;5070502;28;20044;-68
2022/07/15 00:58:51;;;;;;;1.30;0.40;;;21.70;85.90;;;;;;5069086;28;20056;-68
2022/07/15 01:01:19;;;;;;;0.32;0.32;;;21.70;85.90;;;;;;5070027;28;20113;-66
2022/07/15 01:03:47;;;;;;;0.50;0.50;;;21.70;86.00;;;;;;5069825;28;20124;-65
2022/07/15 01:06:14;;;;;;;0.40;0.40;;;21.70;86.00;;;;;;5050760;28;20056;-67
2022/07/15 01:08:39;;;;;;;0.40;0.30;;;21.70;86.60;;;;;;5049400;28;20041;-68
2022/07/15 01:11:05;;;;;;;0.30;0.30;;;21.70;86.00;;;;;;5050005;28;20124;-69
2022/07/15 01:13:31;;;;;;;0.52;0.40;;;21.70;86.00;;;;;;5050431;28;20052;-68
2022/07/15 01:15:57;;;;;;;0.40;0.38;;;21.70;86.00;;;;;;5049467;28;20045;-69
2022/07/15 01:18:23;;;;;;;0.85;0.40;;;21.70;86.00;;;;;;5058696;28;20064;-69
2022/07/15 01:20:49;;;;;;;1.05;0.40;;;21.70;86.00;;;;;;5068179;28;20139;-68
2022/07/15 01:23:15;;;;;;;0.38;0.32;;;21.70;86.10;;;;;;5068231;28;20044;-66
2022/07/15 01:25:41;;;;;;;0.40;0.40;;;21.70;86.10;;;;;;5070084;28;20056;-68
2022/07/15 01:28:09;;;;;;;0.30;0.30;;;21.70;86.10;;;;;;5073329;28;20044;-67
2022/07/15 01:30:35;;;;;;;0.30;0.30;;;21.70;86.10;;;;;;5076679;28;20036;-67
2022/07/15 01:33:01;;;;;;;0.20;0.20;;;21.70;86.10;;;;;;5056222;28;20053;-69
2022/07/15 01:35:28;;;;;;;0.50;0.50;;;21.70;86.20;;;;;;5055400;28;20049;-68
2022/07/15 01:37:54;;;;;;;0.40;0.30;;;21.70;86.20;;;;;;5056194;28;20040;-66
2022/07/15 01:40:19;;;;;;;0.40;0.40;;;21.70;86.20;;;;;;5055546;28;20056;-68
2022/07/15 01:42:45;;;;;;;0.20;0.20;;;21.70;86.20;;;;;;5076460;28;20532;-61
2022/07/15 01:45:11;;;;;;;0.47;0.47;;;21.70;86.20;;;;;;5076331;28;20058;-68
2022/07/15 01:47:45;;;;;;;0.30;0.30;;;21.70;86.20;;;;;;5076744;28;20485;-68
2022/07/15 01:50:11;;;;;;;0.50;0.40;;;21.70;86.30;;;;;;5075092;28;20044;-67
2022/07/15 01:52:37;;;;;;;0.35;0.35;;;21.70;86.30;;;;;;5076715;28;20047;-66
2022/07/15 01:55:05;;;;;;;0.50;0.50;;;21.70;86.30;;;;;;5075028;28;20053;-65
2022/07/15 01:57:31;;;;;;;0.45;0.40;;;21.70;86.30;;;;;;5076326;28;20481;-68
2022/07/15 01:59:57;;;;;;;0.40;0.40;;;21.70;86.30;;;;;;5081486;28;20043;-68
2022/07/15 02:02:22;;;;;;;;;;;21.70;86.30;;;;;;5077265;28;20146;-69
2022/07/15 02:04:48;;;;;;;0.50;0.40;;;21.70;86.40;;;;;;5075470;28;19924;-61
2022/07/15 02:07:14;;;;;;;1.35;0.52;;;21.50;86.20;;;;;;5075719;28;20086;-68
2022/07/15 02:09:40;;;;;;;0.95;0.70;;;21.70;86.40;;;;;;5075711;28;20041;-66
2022/07/15 02:12:06;;;;;;;0.43;0.40;;;21.70;86.40;;;;;;5076066;28;20049;-68
2022/07/15 02:14:31;;;;;;;;;;;21.70;86.40;;;;;;5076924;28;20044;-68
2022/07/15 02:16:57;;;;;;;0.45;0.45;;;21.70;86.50;;;;;;5075072;28;19924;-68
2022/07/15 02:19:23;;;;;;;0.40;0.38;;;21.70;86.40;;;;;;5076291;28;20044;-67
2022/07/15 02:21:49;;;;;;;1.67;0.50;;;21.70;86.40;;;;;;5075348;28;20473;-62
2022/07/15 02:24:14;;;;;;;0.30;0.30;;;21.70;86.40;;;;;;5074818;28;20048;-68
2022/07/15 02:26:40;;;;;;;0.35;0.35;;;21.70;86.80;;;;;;5075862;28;20551;-67
2022/07/15 02:29:06;;;;;;;0.28;0.25;;;21.70;86.50;;;;;;5075806;28;20040;-67
2022/07/15 02:31:32;;;;;;;;;;;21.70;86.50;;;;;;5076424;28;20382;-66
2022/07/15 02:33:58;;;;;;;0.30;0.30;;;21.70;86.60;;;;;;5075889;28;19916;-68
2022/07/15 02:36:23;;;;;;;;;;;21.60;86.40;;;;;;5060025;28;20747;-69
2022/07/15 02:38:49;;;;;;;1.67;0.50;;;21.60;86.50;;;;;;5067098;28;19920;-68
2022/07/15 02:41:15;;;;;;;0.50;0.50;;;21.60;86.40;;;;;;5070509;28;20049;-66
2022/07/15 02:43:44;;;;;;;0.30;0.30;;;21.60;86.40;;;;;;5072029;28;20132;-66
2022/07/15 02:46:10;;;;;;;0.30;0.30;;;21.60;86.50;;;;;;5071808;28;20049;-66
2022/07/15 02:48:38;;;;;;;0.57;0.32;;;21.60;86.50;;;;;;5071924;28;20087;-66
2022/07/15 02:51:04;;;;;;;0.50;0.30;;;21.60;86.50;;;;;;5070315;28;20051;-67
2022/07/15 02:53:29;;;;;;;0.45;0.45;;;21.60;86.50;;;;;;5070903;28;20044;-67
2022/07/15 02:55:59;;;;;;;0.30;0.30;;;21.60;86.60;;;;;;5072331;28;20120;-61
2022/07/15 02:58:26;;;;;;;0.77;0.52;;;21.60;86.60;;;;;;5055079;28;20113;-67
2022/07/15 03:00:52;;;;;;;0.30;0.30;;;21.60;86.60;;;;;;5072515;28;20057;-67
2022/07/15 03:03:17;;;;;;;;;;;21.60;86.60;;;;;;5072429;28;20044;-65
2022/07/15 03:05:43;;;;;;;0.55;0.40;;;21.60;86.70;;;;;;5071719;28;20353;-63
2022/07/15 03:08:09;;;;;;;1.35;0.45;;;21.60;86.60;;;;;;5071641;28;20048;-65
2022/07/15 03:10:35;;;;;;;1.48;0.45;;;21.60;86.60;;;;;;5071809;28;20560;-64
2022/07/15 03:13:01;;;;;;;;;;;21.60;86.70;;;;;;5066591;28;20039;-61
2022/07/15 03:15:26;;;;;;;0.85;0.30;;;21.60;86.80;;;;;;5069351;28;19924;-65
2022/07/15 03:17:52;;;;;;;0.43;0.40;;;21.60;86.70;;;;;;5072131;28;20044;-65
2022/07/15 03:20:18;;;;;;;0.30;0.30;;;21.60;86.70;;;;;;5070228;28;20048;-64
2022/07/15 03:22:43;;;;;;;0.38;0.38;;;21.60;86.70;;;;;;5072050;28;20052;-62
2022/07/15 03:25:09;;;;;;;0.50;0.40;;;21.60;86.70;;;;;;5070729;28;20115;-64
2022/07/15 03:27:35;;;;;;;0.40;0.40;;;21.60;86.70;;;;;;5072131;28;20470;-64
2022/07/15 03:30:01;;;;;;;0.30;0.30;;;21.60;86.80;;;;;;5071441;28;20128;-65
2022/07/15 03:32:27;;;;;;;1.00;0.57;;;21.60;86.80;;;;;;5072064;28;20429;-64
2022/07/15 03:34:52;;;;;;;0.30;0.30;;;21.60;86.80;;;;;;5071657;28;20040;-65
2022/07/15 03:37:18;;;;;;;;;;;21.60;86.90;;;;;;5069945;28;20290;-67
2022/07/15 03:39:44;;;;;;;0.40;0.40;;;21.60;87.00;;;;;;5070442;28;19924;-68
2022/07/15 03:42:10;;;;;;;1.10;0.30;;;21.60;86.90;;;;;;5071558;28;20083;-68
2022/07/15 03:44:35;;;;;;;;;;;21.60;86.90;;;;;;5072414;28;20087;-68
2022/07/15 03:47:01;;;;;;;0.63;0.30;;;21.60;87.00;;;;;;5070963;28;19962;-62
2022/07/15 03:49:27;;;;;;;0.35;0.35;;;21.60;86.90;;;;;;5071650;28;20041;-67
2022/07/15 03:51:53;;;;;;;0.43;0.20;;;21.60;87.00;;;;;;5069574;28;20067;-67
2022/07/15 03:54:19;;;;;;;;;;;21.60;87.00;;;;;;5070335;28;20052;-68
2022/07/15 03:56:48;;;;;;;0.50;0.50;;;21.60;87.10;;;;;;5071413;28;19923;-67
2022/07/15 03:59:14;;;;;;;0.28;0.28;;;21.60;87.00;;;;;;5070060;28;20394;-67
2022/07/15 04:01:41;;;;;;;0.40;0.40;;;21.60;87.00;;;;;;5070956;28;20533;-66
2022/07/15 04:04:07;;;;;;;0.40;0.40;;;21.60;87.00;;;;;;5069344;28;20075;-68
2022/07/15 04:06:32;;;;;;;;;;;21.60;87.00;;;;;;5070787;28;20075;-67
2022/07/15 04:08:58;;;;;;;0.95;0.57;;;21.60;87.10;;;;;;5070320;28;19925;-66
2022/07/15 04:11:24;;;;;;;;;;;21.60;87.00;;;;;;5071307;28;20051;-68
2022/07/15 04:13:50;;;;;;;0.70;0.60;;;21.60;87.20;;;;;;5071375;28;19923;-66
2022/07/15 04:16:15;;;;;;;0.50;0.50;;;21.60;87.00;;;;;;5070356;28;20119;-68
2022/07/15 04:18:41;;;;;;;0.40;0.40;;;21.60;87.00;;;;;;5071033;28;20050;-67
2022/07/15 04:21:07;;;;;;;0.40;0.30;;;21.60;87.10;;;;;;5069393;28;20048;-67
2022/07/15 04:23:33;;;;;;;0.50;0.50;;;21.60;87.10;;;;;;5069439;28;20052;-69
2022/07/15 04:25:59;;;;;;;0.40;0.40;;;21.60;87.10;;;;;;5071020;28;20408;-69
2022/07/15 04:28:25;;;;;;;0.50;0.45;;;21.60;87.10;;;;;;5070457;28;20114;-70
2022/07/15 04:30:52;;;;;;;0.30;0.30;;;21.60;87.10;;;;;;5070716;28;20059;-69
2022/07/15 04:33:19;;;;;;;0.40;0.40;;;21.60;87.20;;;;;;5070012;28;20782;-68
2022/07/15 04:35:45;;;;;;;0.95;0.50;;;21.60;87.20;;;;;;5069262;28;20478;-69
2022/07/15 04:38:11;;;;;;;0.20;0.20;;;21.60;87.20;;;;;;5069329;28;20044;-69
2022/07/15 04:40:39;;;;;;;1.98;0.40;;;21.60;87.20;;;;;;5069657;28;20048;-69
2022/07/15 04:43:06;;;;;;;2.20;0.45;;;21.60;87.20;;;;;;5070492;28;20094;-61
2022/07/15 04:45:32;;;;;;;0.30;0.30;;;21.60;87.20;;;;;;5069962;28;20045;-68
2022/07/15 04:47:57;;;;;;;;;;;21.60;87.30;;;;;;5071205;28;20048;-70
2022/07/15 04:53:08;;;;;;;0.35;0.32;;;21.60;87.20;;;;;;5069746;28;20067;-68
2022/07/15 04:55:34;;;;;;;0.30;0.30;;;21.60;87.90;;;;;;5069308;28;20124;-68
2022/07/15 04:58:00;;;;;;;;;;;21.60;87.20;;;;;;5070941;28;20136;-69
2022/07/15 05:00:26;;;;;;;0.40;0.40;;;21.60;87.30;;;;;;5066908;28;19931;-69
2022/07/15 05:02:52;;;;;;;1.40;0.60;;;21.60;87.20;;;;;;5058894;28;20062;-68
2022/07/15 05:05:18;;;;;;;1.17;0.40;;;21.60;87.20;;;;;;5068391;28;20155;-69
2022/07/15 05:07:45;;;;;;;0.30;0.30;;;21.60;87.20;;;;;;5070378;28;20109;-68
2022/07/15 05:10:11;;;;;;;1.83;0.80;;;21.60;87.30;;;;;;5069141;28;20052;-66
2022/07/15 05:12:38;;;;;;;0.30;0.30;;;21.60;87.30;;;;;;5069707;28;20051;-68
2022/07/15 05:15:04;;;;;;;1.48;0.60;;;21.60;87.30;;;;;;5069934;28;20037;-67
2022/07/15 05:17:31;;;;;;;0.70;0.50;;;21.60;87.30;;;;;;5069275;28;20045;-67
2022/07/15 05:19:56;;;;;;;1.60;0.93;;;21.60;87.30;;;;;;5069989;28;20482;-68
2022/07/15 05:22:22;;;;;;;;;;;21.60;87.30;;;;;;5067327;28;20090;-69
2022/07/15 05:24:48;;;;;;;2.08;0.40;;;21.60;87.30;;;;;;5068594;28;19920;-68
2022/07/15 05:27:15;;;;;;;0.32;0.32;;;21.60;87.30;;;;;;5066647;28;20041;-67
2022/07/15 05:29:40;;;;;;;0.75;0.35;;;21.60;87.30;;;;;;5050518;28;20076;-68
2022/07/15 05:32:09;;;;;;;0.40;0.40;;;21.60;87.30;;;;;;5065175;28;20128;-61
2022/07/15 05:34:34;;;;;;;;;;;21.60;87.30;;;;;;5067121;28;20115;-68
2022/07/15 05:37:00;;;;;;;0.30;0.30;;;21.60;87.40;;;;;;5068390;28;19920;-67
2022/07/15 05:39:26;;;;;;;0.40;0.40;;;21.60;87.30;;;;;;5068974;28;20048;-68
2022/07/15 05:41:52;;;;;;;0.30;0.30;;;21.60;87.30;;;;;;5070149;28;20127;-66
2022/07/15 05:44:18;;;;;;;0.77;0.40;;;21.60;87.30;;;;;;5067362;28;20049;-67
2022/07/15 05:46:43;;;;;;;0.40;0.40;;;21.60;87.40;;;;;;5069542;28;20115;-71
2022/07/15 05:49:10;;;;;;;;;;;21.60;87.40;;;;;;5069599;28;20044;-65
2022/07/15 05:51:36;;;;;;;2.73;0.60;;;21.60;86.40;;;;;;5068729;28;19963;-66
2022/07/15 05:54:02;;;;;;;0.80;0.50;;;21.60;87.00;;;;;;5068224;28;20306;-65
2022/07/15 05:56:28;;;;;;;0.30;0.30;;;21.60;86.90;;;;;;5068717;28;20076;-67
2022/07/15 05:58:54;;;;;;;0.95;0.65;;;21.50;86.70;;;;;;5069877;28;20076;-67
2022/07/15 06:01:21;;;;;;;0.32;0.32;;;21.60;86.70;;;;;;5067948;28;20048;-67
2022/07/15 06:03:47;;;;;;;0.30;0.30;;;21.60;86.70;;;;;;5068713;28;20055;-67
2022/07/15 06:06:12;;;;;;;;;;;21.60;86.70;;;;;;5068887;28;20041;-63
2022/07/15 06:08:38;;;;;;;0.80;0.50;;;21.60;86.50;;;;;;5068668;28;19916;-68
2022/07/15 06:11:04;;;;;;;0.43;0.30;;;21.60;86.60;;;;;;5067219;28;20040;-67
2022/07/15 06:13:30;;;;;;;1.58;0.40;;;21.60;86.60;;;;;;5051556;28;20481;-65
2022/07/15 06:15:56;;;;;;;;;;;21.60;86.60;;;;;;5073141;28;20043;-67
2022/07/15 06:18:21;;;;;;;0.30;0.30;;;21.50;86.50;;;;;;5072820;28;20010;-67
2022/07/15 06:20:47;;;;;;;0.50;0.40;;;21.50;86.60;;;;;;5072531;28;20067;-68
2022/07/15 06:23:13;;;;;;;1.05;0.40;;;21.60;86.60;;;;;;5072699;28;20056;-67
2022/07/15 06:25:39;;;;;;;0.63;0.35;;;21.60;86.70;;;;;;5071691;28;20048;-69
2022/07/15 06:28:04;;;;;;;0.35;0.35;;;21.60;86.70;;;;;;5073200;28;20040;-68
2022/07/15 06:30:33;;;;;;;3.58;0.80;;;21.50;86.70;;;;;;5072558;28;20048;-68
2022/07/15 06:32:58;;;;;;;0.85;0.55;;;21.50;86.70;;;;;;5071508;28;20126;-67
2022/07/15 06:35:24;;;;;;;;;;;21.60;86.50;;;;;;5067122;28;20427;-68
2022/07/15 06:37:51;;;;;;;1.45;0.77;;;21.50;85.20;;;;;;5068456;28;20003;-66
2022/07/15 06:40:17;;;;;;;0.65;0.60;;;21.50;86.00;;;;;;5070897;28;20041;-60
2022/07/15 06:42:43;;;;;;;0.43;0.43;;;21.50;86.00;;;;;;5069459;28;20040;-66
2022/07/15 06:45:10;;;;;;;;;;;21.50;85.90;;;;;;5064582;28;20497;-69
2022/07/15 06:47:38;;;;;;;0.43;0.40;;;21.50;85.60;;;;;;5069976;28;20453;-68
2022/07/15 06:50:05;;;;;;;0.70;0.50;;;21.50;85.90;;;;;;5068757;28;20042;-65
2022/07/15 06:52:31;;;;;;;1.08;0.45;;;21.50;85.90;;;;;;5068045;28;20037;-67
2022/07/15 06:54:56;;;;;;;;;;;21.50;85.80;;;;;;5069043;28;20032;-67
2022/07/15 06:57:22;;;;;;;1.42;0.50;;;21.50;85.70;;;;;;5069586;28;19928;-67
2022/07/15 06:59:48;;;;;;;0.75;0.50;;;21.50;85.80;;;;;;5068906;28;20037;-67
2022/07/15 07:02:14;;;;;;;0.88;0.57;;;21.50;85.80;;;;;;5069783;28;20048;-67
2022/07/15 07:04:42;;;;;;;1.77;0.60;;;21.50;85.80;;;;;;5066941;28;20071;-62
2022/07/15 07:07:07;;;;;;;1.55;0.50;;;21.80;86.00;;;;;;5065697;28;20432;-66
2022/07/15 07:09:33;;;;;;;;;;;21.50;85.80;;;;;;5065680;28;20113;-66
2022/07/15 07:11:59;;;;;;;0.75;0.40;;;21.50;85.70;;;;;;5066768;28;20023;-66
2022/07/15 07:14:24;;;;;;;3.05;0.85;;;21.60;85.80;;;;;;5069065;28;20033;-64
2022/07/15 07:16:50;;;;;;;1.58;0.38;;;21.60;85.80;;;;;;5068238;28;20033;-65
2022/07/15 07:19:16;;;;;;;;;;;21.60;85.70;;;;;;5069216;28;20481;-66
2022/07/15 07:21:41;;;;;;;0.63;0.30;;;21.60;85.70;;;;;;5063451;28;19925;-66
2022/07/15 07:24:07;;;;;;;;;;;21.60;85.70;;;;;;5066988;28;20056;-67
2022/07/15 07:26:34;;;;;;;1.27;0.60;;;21.60;85.70;;;;;;5062553;28;19932;-65
2022/07/15 07:28:59;;;;;;;0.40;0.40;;;21.60;85.70;;;;;;5068417;28;20516;-69
2022/07/15 07:31:26;;;;;;;;;;;21.60;85.60;;;;;;5066967;28;20041;-65
2022/07/15 07:33:56;;;;;;;0.47;0.47;;;21.60;85.60;;;;;;5069914;28;19920;-68
2022/07/15 07:36:22;;;;;;;1.17;0.60;;;21.60;85.60;;;;;;5069578;28;20093;-64
2022/07/15 07:38:47;;;;;;;;;;;21.60;85.70;;;;;;5068792;28;20032;-67
2022/07/15 07:41:13;;;;;;;0.65;0.40;;;21.60;85.50;;;;;;5069691;28;20373;-67
2022/07/15 07:43:39;;;;;;;1.13;0.47;;;21.60;85.60;;;;;;5071346;28;20501;-66
2022/07/15 07:46:05;;;;;;;0.82;0.40;;;21.60;85.60;;;;;;5065010;28;20056;-68
2022/07/15 07:48:31;;;;;;;1.95;0.60;;;21.60;85.50;;;;;;5069028;28;20389;-67
2022/07/15 07:50:57;;;;;;;;;;;21.60;85.50;;;;;;5071092;28;20045;-68
2022/07/15 07:53:23;;;;;;;0.73;0.60;;;21.60;85.50;;;;;;5066726;28;19921;-68
2022/07/15 07:55:50;;;;;;;4.47;0.60;;;21.70;85.60;;;;;;5068508;28;20049;-67
2022/07/15 07:58:16;;;;;;;2.45;0.80;;;21.70;85.50;;;;;;5068110;28;20064;-67
2022/07/15 08:00:43;;;;;;;1.35;0.60;;;21.70;85.50;;;;;;5050113;28;20045;-69
2022/07/15 08:03:09;;;;;;;2.00;0.60;;;21.70;85.50;;;;;;5051856;28;20055;-69
2022/07/15 08:05:35;;;;;;;;;;;21.70;85.50;;;;;;5050295;28;20041;-68
2022/07/15 08:08:11;;;;;;;1.50;0.57;;;21.70;85.30;;;;;;5051957;28;19993;-68
2022/07/15 08:10:37;;;;;;;;;;;21.70;85.40;;;;;;5050062;28;20424;-69
2022/07/15 08:13:03;;;;;;;0.70;0.50;;;21.70;85.30;;;;;;5051899;28;19982;-68
2022/07/15 08:15:28;;;;;;;0.52;0.50;;;21.70;85.40;;;;;;5050754;28;20057;-61
2022/07/15 08:17:54;;;;;;;;;;;21.70;85.30;;;;;;5052089;28;20053;-68
2022/07/15 08:20:20;;;;;;;0.98;0.60;;;21.70;85.20;;;;;;5049921;28;20376;-69
2022/07/15 08:22:45;;;;;;;9.40;0.73;;;21.70;85.30;;;;;;5063856;28;20040;-68
2022/07/15 08:25:11;;;;;;;0.63;0.40;;;21.70;85.30;;;;;;5056200;28;20425;-69
2022/07/15 08:27:37;;;;;;;2.58;1.00;;;21.70;85.30;;;;;;5070861;28;20040;-69
2022/07/15 08:30:04;;;;;;;1.10;0.50;;;21.70;85.30;;;;;;5066295;28;20048;-68
2022/07/15 08:32:29;;;;;;;0.80;0.60;;;21.70;85.30;;;;;;5051424;28;20128;-62
2022/07/15 08:34:55;;;;;;;;;;;21.70;85.30;;;;;;5050893;28;20131;-68
2022/07/15 08:37:21;;;;;;;1.20;0.80;;;21.70;85.20;;;;;;5049613;28;20012;-68
2022/07/15 08:39:46;;;;;;;;;;;21.70;85.30;;;;;;5050211;28;20080;-68
2022/07/15 08:42:15;;;;;;;1.58;0.47;;;21.70;85.10;;;;;;5050679;28;19971;-67
2022/07/15 08:44:41;;;;;;;0.35;0.35;;;21.70;85.90;;;;;;5049520;28;20077;-67
2022/07/15 08:47:07;;;;;;;0.57;0.52;;;21.70;85.20;;;;;;5066829;28;20509;-68
2022/07/15 08:49:34;;;;;;;0.40;0.40;;;21.70;85.20;;;;;;5069409;28;20044;-62
2022/07/15 08:52:01;;;;;;;1.98;0.63;;;21.70;85.20;;;;;;5068917;28;20363;-67
2022/07/15 08:54:28;;;;;;;0.50;0.47;;;21.70;85.20;;;;;;5069228;28;20044;-66
2022/07/15 08:56:54;;;;;;;0.43;0.40;;;21.70;85.20;;;;;;5069585;28;20048;-68
2022/07/15 08:59:20;;;;;;;;;;;21.70;85.20;;;;;;5071631;28;20496;-67
2022/07/15 09:01:51;;;;;;;2.20;0.57;;;21.70;84.90;;;;;;5070429;28;20012;-67
2022/07/15 09:04:18;;;;;;;0.52;0.30;;;21.70;85.20;;;;;;5070415;28;20043;-68
2022/07/15 09:06:46;;;;;;;0.40;0.40;;;21.70;85.10;;;;;;5069095;28;20447;-69
2022/07/15 09:09:33;;;;;;;0.80;0.40;;;21.70;85.00;;;;;;5069967;28;20139;-68
2022/07/15 09:12:05;;;;;;;0.47;0.45;;;21.70;84.90;;;;;;5069420;28;20478;-68
2022/07/15 09:14:33;;;;;;;0.35;0.35;;;21.70;85.00;;;;;;5070933;28;20132;-69
2022/07/15 09:17:11;;;;;;;1.55;0.57;;;21.70;85.00;;;;;;5070499;28;20122;-68
2022/07/15 09:19:55;;;;;;;0.40;0.40;;;21.70;84.90;;;;;;5070299;28;20048;-61
2022/07/15 09:22:21;;;;;;;0.40;0.40;;;21.70;84.90;;;;;;5070031;28;20381;-68
2022/07/15 09:25:00;;;;;;;0.73;0.20;;;21.70;85.00;;;;;;5069124;28;20048;-69
2022/07/15 09:27:34;;;;;;;0.70;0.40;;;21.70;85.00;;;;;;5070448;28;20094;-69
2022/07/15 09:33:39;;;;;;;0.55;0.52;;;21.70;84.90;;;;;;5070839;28;20067;-69
2022/07/15 09:36:18;;;;;;;0.68;0.38;;;21.70;85.00;;;;;;5069509;28;20391;-69
2022/07/15 09:38:58;;;;;;;0.57;0.30;;;21.70;84.90;;;;;;5068229;28;20083;-69
2022/07/15 09:41:37;;;;;;;0.40;0.40;;;21.70;84.80;;;;;;5070495;28;20119;-69
2022/07/15 09:44:14;;;;;;;1.10;0.50;;;21.70;84.80;;;;;;5069855;28;20110;-67
2022/07/15 09:46:48;;;;;;;0.57;0.30;;;21.70;84.70;;;;;;5069523;28;20045;-61
2022/07/15 09:49:23;;;;;;;0.75;0.40;;;21.70;84.90;;;;;;5073030;28;20530;-69
2022/07/15 09:52:00;;;;;;;1.35;0.50;;;21.70;84.70;;;;;;5073159;28;20040;-69
2022/07/15 09:54:30;;;;;;;0.77;0.40;;;21.70;84.70;;;;;;5073770;28;20044;-69
2022/07/15 09:56:57;;;;;;;0.25;0.25;;;21.70;84.70;;;;;;5073907;28;20041;-68
2022/07/15 09:59:23;;;;;;;3.58;0.35;;;21.70;84.70;;;;;;5074533;28;20040;-67
2022/07/15 10:01:50;;;;;;;0.47;0.40;;;21.70;84.70;;;;;;5073703;28;20449;-69
2022/07/15 10:04:17;;;;;;;1.02;0.40;;;21.70;84.60;;;;;;5074248;28;20045;-69
2022/07/15 10:06:43;;;;;;;0.50;0.50;;;21.70;84.70;;;;;;5072635;28;20040;-61
2022/07/15 10:09:09;;;;;;;0.30;0.30;;;21.70;84.60;;;;;;5070980;28;20048;-67
2022/07/15 10:11:43;;;;;;;0.25;0.25;;;21.70;84.70;;;;;;5060889;28;20724;-69
2022/07/15 10:14:31;;;;;;;0.57;0.45;;;21.70;84.50;;;;;;5074122;28;20044;-69
2022/07/15 10:17:11;;;;;;;0.40;0.40;;;21.70;84.50;;;;;;5059701;28;20532;-68
2022/07/15 10:19:57;;;;;;;0.52;0.30;;;21.70;84.50;;;;;;5058982;28;20041;-69
2022/07/15 10:23:12;;;;;;;0.60;0.45;;;21.70;84.50;;;;;;5053285;28;20107;-69
2022/07/15 10:26:02;;;;;;;0.30;0.30;;;21.70;84.50;;;;;;5052412;28;20156;-67
2022/07/15 10:28:37;;;;;;;0.75;0.38;;;21.70;84.50;;;;;;5053656;28;20041;-68
2022/07/15 10:31:13;;;;;;;0.47;0.40;;;21.70;84.60;;;;;;5071148;28;20148;-68
2022/07/15 10:33:39;;;;;;;0.20;0.20;;;21.70;84.50;;;;;;5072651;28;20044;-69
2022/07/15 10:36:06;;;;;;;0.30;0.30;;;21.70;84.50;;;;;;5071044;28;20032;-69
2022/07/15 10:38:37;;;;;;;0.45;0.35;;;21.80;84.60;;;;;;5071952;28;20048;-68
2022/07/15 10:41:07;;;;;;;0.60;0.30;;;21.70;84.50;;;;;;5073241;28;20045;-69
2022/07/15 10:43:52;;;;;;;1.17;0.40;;;21.70;84.60;;;;;;5073785;28;20053;-68
2022/07/15 10:46:17;;;;;;;0.30;0.30;;;21.70;84.60;;;;;;5072886;28;20427;-67
2022/07/15 10:48:59;;;;;;;0.32;0.32;;;21.70;84.70;;;;;;5072466;28;20044;-68
2022/07/15 10:51:37;;;;;;;0.30;0.30;;;21.70;84.70;;;;;;5072876;28;20087;-69
2022/07/15 10:54:10;;;;;;;0.30;0.30;;;21.70;84.70;;;;;;5072024;28;20051;-67
2022/07/15 10:56:45;;;;;;;0.63;0.40;;;21.70;84.70;;;;;;5073386;28;20084;-69
2022/07/15 10:59:10;;;;;;;0.30;0.30;;;21.70;84.70;;;;;;5072871;28;20040;-69
2022/07/15 11:01:37;;;;;;;;;;;21.70;84.70;;;;;;5071826;28;20089;-67
2022/07/15 11:04:13;;;;;;;1.30;0.83;;;21.70;84.70;;;;;;5072733;28;19939;-68
2022/07/15 11:09:46;;;;;;;0.40;0.40;;;21.70;84.70;;;;;;5072206;28;20572;-69
2022/07/15 11:12:16;;;;;;;0.30;0.25;;;21.70;84.70;;;;;;5072698;28;20059;-69
2022/07/15 11:14:45;;;;;;;0.35;0.35;;;21.70;85.40;;;;;;5073069;28;20036;-69
2022/07/15 11:17:13;;;;;;;0.38;0.30;;;21.70;84.70;;;;;;5072343;28;20044;-68
2022/07/15 11:19:39;;;;;;;1.08;0.32;;;21.70;84.70;;;;;;5072914;28;20374;-68
2022/07/15 11:22:07;;;;;;;0.40;0.40;;;21.70;84.70;;;;;;5071399;28;20098;-67
2022/07/15 11:24:35;;;;;;;1.42;0.28;;;21.70;84.70;;;;;;5071932;28;20089;-68
2022/07/15 11:27:01;;;;;;;0.20;0.20;;;21.70;84.70;;;;;;5072352;28;20045;-68
2022/07/15 11:29:40;;;;;;;0.55;0.35;;;21.70;84.80;;;;;;5072832;28;20488;-69
2022/07/15 11:32:07;;;;;;;0.40;0.30;;;21.70;84.80;;;;;;5071706;28;20048;-69
2022/07/15 11:34:41;;;;;;;0.20;0.20;;;21.70;84.80;;;;;;5072598;28;20053;-68
2022/07/15 11:37:07;;;;;;;0.57;0.30;;;21.70;84.80;;;;;;5071140;28;20121;-68
2022/07/15 11:39:33;;;;;;;0.32;0.30;;;21.70;84.80;;;;;;5070647;28;20044;-69
2022/07/15 11:44:48;;;;;;;0.40;0.40;;;21.70;84.80;;;;;;5072470;28;20051;-68
2022/07/15 11:47:14;;;;;;;0.47;0.32;;;21.80;85.50;;;;;;5071074;28;20669;-68
2022/07/15 11:49:39;;;;;;;0.70;0.40;;;21.70;84.80;;;;;;5072185;28;20040;-66
2022/07/15 11:52:07;;;;;;;0.30;0.30;;;21.70;84.70;;;;;;5070865;28;20047;-69
2022/07/15 11:54:40;;;;;;;0.38;0.38;;;21.70;84.70;;;;;;5071381;28;20119;-69
2022/07/15 11:57:12;;;;;;;0.38;0.30;;;21.70;84.80;;;;;;5071663;28;20033;-68
2022/07/15 11:59:38;;;;;;;0.40;0.35;;;21.70;84.70;;;;;;5072281;28;20111;-69
2022/07/15 12:02:09;;;;;;;0.22;0.22;;;21.70;84.70;;;;;;5071474;28;20045;-67
2022/07/15 12:04:35;;;;;;;0.43;0.43;;;21.80;84.80;;;;;;5072018;28;20096;-68
2022/07/15 12:07:01;;;;;;;0.25;0.20;;;21.70;84.80;;;;;;5070320;28;20135;-69
2022/07/15 12:09:38;;;;;;;0.20;0.20;;;21.70;84.70;;;;;;5070831;28;20044;-68
2022/07/15 12:12:04;;;;;;;0.20;0.20;;;21.70;84.70;;;;;;5063109;28;20055;-69
2022/07/15 12:14:30;;;;;;;0.20;0.20;;;21.70;84.70;;;;;;5070998;28;20048;-68
2022/07/15 12:16:57;;;;;;;0.35;0.30;;;21.70;85.40;;;;;;5071262;28;20060;-61
2022/07/15 12:19:26;;;;;;;0.43;0.30;;;21.80;84.80;;;;;;5071789;28;20094;-69
2022/07/15 12:21:54;;;;;;;0.30;0.30;;;21.70;84.70;;;;;;5071032;28;20102;-69
2022/07/15 12:24:22;;;;;;;0.40;0.40;;;21.70;84.70;;;;;;5070016;28;20049;-70
2022/07/15 12:26:50;;;;;;;0.40;0.30;;;21.70;84.80;;;;;;5071639;28;20040;-68
2022/07/15 12:29:30;;;;;;;0.52;0.32;;;21.70;84.80;;;;;;5070965;28;20553;-69
2022/07/15 12:32:00;;;;;;;0.32;0.30;;;21.80;85.40;;;;;;5071512;28;20048;-69
2022/07/15 12:34:51;;;;;;;0.30;0.30;;;21.70;84.70;;;;;;5070151;28;20048;-69
2022/07/15 12:37:20;;;;;;;0.30;0.30;;;21.70;84.80;;;;;;5069643;28;20083;-69
2022/07/15 12:40:06;;;;;;;0.20;0.20;;;21.80;84.70;;;;;;5070107;28;20555;-69
2022/07/15 12:42:48;;;;;;;0.20;0.20;;;21.70;84.60;;;;;;5071502;28;20049;-69
2022/07/15 12:45:22;;;;;;;0.52;0.52;;;21.70;84.60;;;;;;5070609;28;20051;-70
2022/07/15 12:48:04;;;;;;;0.40;0.30;;;21.80;84.60;;;;;;5071461;28;20098;-69
2022/07/15 12:50:56;;;;;;;0.32;0.20;;;21.70;84.50;;;;;;5070034;28;20052;-65
2022/07/15 12:53:27;;;;;;;0.30;0.30;;;21.80;84.60;;;;;;5069935;28;20641;-69
2022/07/15 12:55:57;;;;;;;0.40;0.30;;;21.80;84.60;;;;;;5071097;28;20473;-70
2022/07/15 12:58:28;;;;;;;0.85;0.45;;;21.80;84.60;;;;;;5068871;28;20071;-68
2022/07/15 13:01:14;;;;;;;0.30;0.30;;;21.80;84.60;;;;;;5070864;28;20044;-70
2022/07/15 13:03:40;;;;;;;0.68;0.30;;;21.80;84.60;;;;;;5051032;28;20080;-69
2022/07/15 13:06:07;;;;;;;0.70;0.30;;;21.80;84.60;;;;;;5049376;28;20079;-69
2022/07/15 13:08:35;;;;;;;0.75;0.30;;;21.80;84.60;;;;;;5050119;28;20045;-69
2022/07/15 13:11:03;;;;;;;0.20;0.20;;;21.80;84.60;;;;;;5050900;28;20049;-61
2022/07/15 13:13:32;;;;;;;0.30;0.30;;;21.80;84.60;;;;;;5051072;28;20399;-68
2022/07/15 13:15:58;;;;;;;0.30;0.30;;;21.80;84.60;;;;;;5050621;28;20525;-68